Time;durP1;ratioP1;P1;durP2;ratioP2;P2;SDS_P1;SDS_P2;PMS_P1;PMS_P2;Temp;Humidity;BMP_temperature;BMP_pressure;BME280_temperature;BME280_humidity;BME280_pressure;Samples;Min_cycle;Max_cycle;Signal;HPM_P1;HPM_P2
2022/05/12 00:02:12;;;;;;;5.05;1.95;;;10.20;90.40;;;;;;5006735;28;20468;-74
2022/05/12 00:04:38;;;;;;;8.55;1.90;;;10.30;90.30;;;;;;5007256;28;20040;-73
2022/05/12 00:07:05;;;;;;;7.60;2.38;;;10.30;90.20;;;;;;5005404;28;20882;-73
2022/05/12 00:09:31;;;;;;;8.13;2.00;;;10.30;90.10;;;;;;4994065;28;20058;-73
2022/05/12 00:11:57;;;;;;;8.60;2.35;;;10.30;90.20;;;;;;5001866;28;20029;-72
2022/05/12 00:14:23;;;;;;;8.30;2.40;;;10.30;90.20;;;;;;5008125;28;20037;-73
2022/05/12 00:16:49;;;;;;;6.32;2.00;;;10.30;90.60;;;;;;5008199;28;20045;-72
2022/05/12 00:19:15;;;;;;;10.02;2.58;;;10.20;90.20;;;;;;5006192;28;20048;-73
2022/05/12 00:21:41;;;;;;;11.95;2.45;;;10.30;90.30;;;;;;5023494;28;20376;-73
2022/05/12 00:24:07;;;;;;;8.15;1.80;;;10.20;90.10;;;;;;5005242;28;20025;-73
2022/05/12 00:26:35;;;;;;;5.80;1.85;;;10.20;90.10;;;;;;5001768;28;20551;-75
2022/05/12 00:29:07;;;;;;;9.73;2.63;;;10.20;90.40;;;;;;5009436;28;20026;-75
2022/05/12 00:31:36;;;;;;;6.43;1.83;;;10.20;90.40;;;;;;4997300;28;20688;-73
2022/05/12 00:34:03;;;;;;;7.38;2.63;;;10.10;90.40;;;;;;5007815;28;20057;-74
2022/05/12 00:36:29;;;;;;;9.65;2.38;;;10.10;90.20;;;;;;5007483;28;20038;-72
2022/05/12 00:38:55;;;;;;;12.55;2.97;;;10.10;90.50;;;;;;5003272;28;20088;-73
2022/05/12 00:41:20;;;;;;;7.20;2.33;;;10.00;90.30;;;;;;5008271;28;20037;-73
2022/05/12 00:43:51;;;;;;;12.30;2.47;;;10.00;90.30;;;;;;5009157;28;20030;-73
2022/05/12 00:46:22;;;;;;;7.28;2.50;;;9.90;90.60;;;;;;5008417;28;20108;-73
2022/05/12 00:48:48;;;;;;;7.13;2.13;;;9.90;91.10;;;;;;5032222;28;20026;-74
2022/05/12 00:51:22;;;;;;;6.55;2.50;;;9.90;91.00;;;;;;4990122;28;20034;-73
2022/05/12 00:53:50;;;;;;;8.18;2.17;;;9.90;90.90;;;;;;5018157;28;20108;-74
2022/05/12 00:56:20;;;;;;;7.32;2.10;;;9.80;90.90;;;;;;5006339;28;20388;-74
2022/05/12 00:58:49;;;;;;;8.82;2.25;;;9.80;90.90;;;;;;5009231;28;20030;-75
2022/05/12 01:01:15;;;;;;;8.20;2.45;;;9.80;90.90;;;;;;5005953;28;20037;-72
2022/05/12 01:03:42;;;;;;;6.00;1.80;;;9.80;90.80;;;;;;5009077;28;20030;-72
2022/05/12 01:06:10;;;;;;;11.27;2.10;;;9.80;90.90;;;;;;5020951;28;20029;-73
2022/05/12 01:08:36;;;;;;;7.97;2.60;;;9.70;90.80;;;;;;5031840;28;20797;-72
2022/05/12 01:11:08;;;;;;;11.07;2.65;;;9.70;90.80;;;;;;5032578;28;20029;-71
2022/05/12 01:13:34;;;;;;;8.50;2.58;;;9.50;90.40;;;;;;5004724;28;20030;-73
2022/05/12 01:16:02;;;;;;;8.23;2.50;;;9.30;90.40;;;;;;5008202;28;20576;-73
2022/05/12 01:18:30;;;;;;;6.05;2.40;;;9.20;90.60;;;;;;5007153;28;20093;-72
2022/05/12 01:20:57;;;;;;;10.98;3.00;;;9.00;91.50;;;;;;5007051;28;20025;-72
2022/05/12 01:23:36;;;;;;;6.90;2.55;;;9.00;91.90;;;;;;5001447;28;20033;-71
2022/05/12 01:26:15;;;;;;;10.55;2.75;;;8.90;92.20;;;;;;5001034;28;20030;-72
2022/05/12 01:28:41;;;;;;;8.45;2.85;;;8.90;91.90;;;;;;5001146;28;20085;-73
2022/05/12 01:31:07;;;;;;;11.00;3.10;;;8.80;91.60;;;;;;5027485;28;20031;-72
2022/05/12 01:33:34;;;;;;;6.38;3.00;;;8.70;92.00;;;;;;5007568;28;20030;-74
2022/05/12 01:36:00;;;;;;;6.13;2.30;;;8.70;91.90;;;;;;5003730;28;20026;-74
2022/05/12 01:38:26;;;;;;;9.00;2.70;;;8.60;91.20;;;;;;5002828;28;20061;-72
2022/05/12 01:40:52;;;;;;;10.43;3.00;;;8.40;91.30;;;;;;5006243;28;20025;-73
2022/05/12 01:43:18;;;;;;;8.27;2.88;;;8.20;91.80;;;;;;5005519;28;20037;-71
2022/05/12 01:45:44;;;;;;;9.48;3.20;;;8.00;91.70;;;;;;5017216;28;20054;-73
2022/05/12 01:48:13;;;;;;;6.85;3.08;;;7.80;92.30;;;;;;5004680;28;20056;-73
2022/05/12 01:50:40;;;;;;;6.53;3.15;;;7.70;92.60;;;;;;5030073;28;20822;-73
2022/05/12 01:53:09;;;;;;;9.90;3.22;;;7.70;93.10;;;;;;5006322;28;20061;-72
2022/05/12 01:55:35;;;;;;;9.55;3.28;;;7.60;93.00;;;;;;5022311;28;20034;-72
2022/05/12 01:58:01;;;;;;;7.38;3.40;;;7.50;93.10;;;;;;5030256;28;20366;-73
2022/05/12 02:00:29;;;;;;;10.80;3.83;;;7.50;93.30;;;;;;5020613;28;20571;-72
2022/05/12 02:02:57;;;;;;;8.50;3.10;;;7.40;93.40;;;;;;5004031;28;20484;-72
2022/05/12 02:05:23;;;;;;;9.07;3.20;;;7.40;93.60;;;;;;5006604;28;20559;-72
2022/05/12 02:07:49;;;;;;;10.63;3.83;;;7.40;93.60;;;;;;5005580;28;20032;-72
2022/05/12 02:10:19;;;;;;;7.78;3.10;;;7.40;93.60;;;;;;4990074;28;20505;-72
2022/05/12 02:12:45;;;;;;;8.65;3.53;;;7.40;93.80;;;;;;4999865;28;20034;-74
2022/05/12 02:15:11;;;;;;;8.55;3.25;;;7.40;93.80;;;;;;5008253;28;20029;-71
2022/05/12 02:17:37;;;;;;;8.75;3.67;;;7.30;93.40;;;;;;5003789;28;20038;-71
2022/05/12 02:20:04;;;;;;;8.77;3.40;;;7.30;93.60;;;;;;5008493;28;20404;-72
2022/05/12 02:22:30;;;;;;;7.75;3.63;;;7.20;93.50;;;;;;4998349;28;20034;-73
2022/05/12 02:24:55;;;;;;;8.48;3.45;;;7.10;93.70;;;;;;5010658;28;20041;-72
2022/05/12 02:27:21;;;;;;;10.55;3.53;;;7.10;94.00;;;;;;5011936;28;20038;-73
2022/05/12 02:29:47;;;;;;;10.65;4.15;;;7.10;94.50;;;;;;5011271;28;20421;-75
2022/05/12 02:32:12;;;;;;;11.32;3.83;;;7.10;94.70;;;;;;5009256;28;20026;-74
2022/05/12 02:34:38;;;;;;;6.50;3.83;;;7.20;95.00;;;;;;5011404;28;20476;-73
2022/05/12 02:37:05;;;;;;;10.93;3.88;;;7.20;94.90;;;;;;5005738;28;20065;-73
2022/05/12 02:39:36;;;;;;;10.23;3.60;;;7.30;94.70;;;;;;5004361;28;20091;-73
2022/05/12 02:42:07;;;;;;;9.05;3.58;;;7.30;94.50;;;;;;5010415;28;20080;-73
2022/05/12 02:44:34;;;;;;;9.70;3.33;;;7.30;94.50;;;;;;5010016;28;20034;-73
2022/05/12 02:47:00;;;;;;;10.30;3.50;;;7.30;94.20;;;;;;5009280;28;20754;-75
2022/05/12 02:49:26;;;;;;;8.75;4.07;;;7.20;93.80;;;;;;5003389;28;20064;-72
2022/05/12 02:51:52;;;;;;;11.55;3.70;;;7.10;93.80;;;;;;5004203;28;20054;-73
2022/05/12 02:54:19;;;;;;;13.23;4.35;;;7.00;93.90;;;;;;5005710;28;20041;-74
2022/05/12 02:56:47;;;;;;;13.00;4.28;;;7.00;94.30;;;;;;5010382;28;20044;-75
2022/05/12 02:59:12;;;;;;;6.65;3.40;;;7.00;94.80;;;;;;5008839;28;20080;-73
2022/05/12 03:01:38;;;;;;;10.68;3.47;;;7.00;94.50;;;;;;4996439;28;20026;-73
2022/05/12 03:04:04;;;;;;;8.80;4.28;;;7.00;94.20;;;;;;5007017;28;20486;-73
2022/05/12 03:06:30;;;;;;;11.23;4.45;;;6.90;94.40;;;;;;5008129;28;20038;-73
2022/05/12 03:08:56;;;;;;;11.50;4.50;;;6.90;94.60;;;;;;5007411;28;20030;-73
2022/05/12 03:11:22;;;;;;;11.15;3.83;;;6.90;94.70;;;;;;5009652;28;20037;-74
2022/05/12 03:13:49;;;;;;;10.27;4.22;;;6.90;94.90;;;;;;5001165;28;20083;-72
2022/05/12 03:16:16;;;;;;;9.55;3.55;;;6.90;94.90;;;;;;5005120;28;20432;-73
2022/05/12 03:18:46;;;;;;;12.35;4.80;;;7.00;95.00;;;;;;5009014;28;20656;-72
2022/05/12 03:21:13;;;;;;;8.75;3.90;;;7.10;94.80;;;;;;5024297;28;20558;-72
2022/05/12 03:23:40;;;;;;;12.93;4.13;;;7.00;94.60;;;;;;5035451;28;20172;-73
2022/05/12 03:26:06;;;;;;;7.57;3.47;;;7.00;94.60;;;;;;5008663;28;20026;-72
2022/05/12 03:28:33;;;;;;;8.38;3.67;;;7.00;94.40;;;;;;5006510;28;20037;-73
2022/05/12 03:30:59;;;;;;;11.57;3.83;;;6.90;93.80;;;;;;5033311;28;20173;-73
2022/05/12 03:33:25;;;;;;;9.18;4.15;;;6.80;93.30;;;;;;5035770;28;20041;-74
2022/05/12 03:35:51;;;;;;;8.75;4.40;;;6.60;93.30;;;;;;5006079;28;20026;-73
2022/05/12 03:38:17;;;;;;;12.93;4.70;;;6.40;93.90;;;;;;5008996;28;20034;-73
2022/05/12 03:40:43;;;;;;;9.32;4.63;;;6.30;94.60;;;;;;5009756;28;20030;-73
2022/05/12 03:43:09;;;;;;;11.82;4.55;;;6.30;94.90;;;;;;5013201;28;20079;-73
2022/05/12 03:45:34;;;;;;;11.73;3.67;;;6.30;95.20;;;;;;5005876;28;20041;-73
2022/05/12 03:48:00;;;;;;;14.38;4.93;;;6.50;95.50;;;;;;5009597;28;20022;-73
2022/05/12 03:50:27;;;;;;;11.55;4.47;;;6.60;95.70;;;;;;5009298;28;20034;-74
2022/05/12 03:52:54;;;;;;;12.35;3.65;;;6.70;95.70;;;;;;5008728;28;20025;-73
2022/05/12 03:55:22;;;;;;;13.68;4.93;;;6.90;95.90;;;;;;5005923;28;20037;-74
2022/05/12 03:57:51;;;;;;;16.38;4.20;;;7.10;96.10;;;;;;5006441;28;20107;-73
2022/05/12 04:00:21;;;;;;;9.23;3.53;;;7.20;95.90;;;;;;5006882;28;20036;-75
2022/05/12 04:02:47;;;;;;;;;;;7.10;93.60;;;;;;4999151;28;20056;-73
2022/05/12 04:05:14;;;;;;;8.95;3.13;;;6.80;92.40;;;;;;5008924;28;20360;-72
2022/05/12 04:07:42;;;;;;;9.52;2.92;;;6.50;92.70;;;;;;5007162;28;20022;-73
2022/05/12 04:10:09;;;;;;;9.73;3.55;;;6.40;93.50;;;;;;5009637;28;20053;-74
2022/05/12 04:12:34;;;;;;;10.90;3.08;;;6.40;94.10;;;;;;5034240;28;20028;-73
2022/05/12 04:15:00;;;;;;;7.53;3.22;;;6.30;94.50;;;;;;5004469;28;20026;-72
2022/05/12 04:17:26;;;;;;;7.55;3.30;;;6.30;94.70;;;;;;5009420;28;20069;-71
2022/05/12 04:19:52;;;;;;;11.95;3.30;;;6.30;94.80;;;;;;5007743;28;20547;-71
2022/05/12 04:22:19;;;;;;;16.20;4.30;;;6.30;94.60;;;;;;5005666;28;20499;-71
2022/05/12 04:24:45;;;;;;;12.85;4.03;;;6.30;94.50;;;;;;5032516;28;20548;-71
2022/05/12 04:27:11;;;;;;;10.50;4.22;;;6.20;94.20;;;;;;5003574;28;20036;-72
2022/05/12 04:29:45;;;;;;;7.03;3.13;;;6.10;94.50;;;;;;5022569;28;20113;-72
2022/05/12 04:32:11;;;;;;;6.70;2.90;;;6.10;94.60;;;;;;5008772;28;20472;-73
2022/05/12 04:37:45;;;;;;;9.18;3.13;;;6.10;93.60;;;;;;5005376;28;20108;-73
2022/05/12 04:40:26;;;;;;;6.28;2.95;;;5.90;93.60;;;;;;5008190;28;20034;-72
2022/05/12 04:42:54;;;;;;;7.65;3.10;;;5.80;93.80;;;;;;5009119;28;20064;-71
2022/05/12 04:45:21;;;;;;;9.95;3.10;;;5.80;94.20;;;;;;5006757;28;20029;-71
2022/05/12 04:47:48;;;;;;;8.05;3.13;;;5.80;94.40;;;;;;5029651;28;20038;-71
2022/05/12 04:50:25;;;;;;;8.60;3.58;;;5.90;94.70;;;;;;5007401;28;20076;-72
2022/05/12 04:52:51;;;;;;;8.18;3.50;;;5.90;94.80;;;;;;5005705;28;20030;-72
2022/05/12 04:55:17;;;;;;;10.55;3.20;;;6.00;94.60;;;;;;5007551;28;20034;-75
2022/05/12 04:57:47;;;;;;;11.10;3.80;;;6.00;94.40;;;;;;5008490;28;20040;-72
2022/05/12 05:00:40;;;;;;;7.78;3.83;;;5.90;94.20;;;;;;5007256;28;20029;-73
2022/05/12 05:03:07;;;;;;;10.63;3.97;;;5.90;94.80;;;;;;5007809;28;20553;-72
2022/05/12 05:05:34;;;;;;;8.57;3.70;;;5.90;95.00;;;;;;5002581;28;20025;-72
2022/05/12 05:08:00;;;;;;;9.32;3.40;;;6.00;94.90;;;;;;5002570;28;20073;-72
2022/05/12 05:10:26;;;;;;;6.63;2.70;;;6.10;95.00;;;;;;5003694;28;20117;-71
2022/05/12 05:12:53;;;;;;;7.65;3.88;;;6.20;95.20;;;;;;5005616;28;20026;-72
2022/05/12 05:15:20;;;;;;;11.00;3.33;;;6.30;95.20;;;;;;5038437;28;20038;-71
2022/05/12 05:17:46;;;;;;;10.43;3.10;;;6.50;95.20;;;;;;5022650;28;20473;-74
2022/05/12 05:20:21;;;;;;;12.73;3.53;;;6.70;95.40;;;;;;5007676;28;20119;-72
2022/05/12 05:22:47;;;;;;;8.85;3.75;;;6.90;95.30;;;;;;5006482;28;20036;-71
2022/05/12 05:25:15;;;;;;;9.68;3.85;;;6.90;94.80;;;;;;5008254;28;20033;-72
2022/05/12 05:27:40;;;;;;;7.20;3.30;;;7.00;94.60;;;;;;4999690;28;20735;-71
2022/05/12 05:30:10;;;;;;;11.40;3.67;;;7.10;94.70;;;;;;5007518;28;20053;-72
2022/05/12 05:32:37;;;;;;;8.77;3.90;;;7.30;94.80;;;;;;5019381;28;20057;-72
2022/05/12 05:35:04;;;;;;;12.13;4.10;;;7.30;94.80;;;;;;5005718;28;20502;-73
2022/05/12 05:37:29;;;;;;;10.63;3.40;;;7.40;94.70;;;;;;5027363;28;20030;-72
2022/05/12 05:39:55;;;;;;;9.85;3.40;;;7.50;94.50;;;;;;4999964;28;20036;-71
2022/05/12 05:42:21;;;;;;;7.30;3.30;;;7.60;94.50;;;;;;5007305;28;20447;-74
2022/05/12 05:44:47;;;;;;;9.10;3.45;;;7.70;94.40;;;;;;5004096;28;20026;-72
2022/05/12 05:47:13;;;;;;;9.18;3.60;;;7.70;94.10;;;;;;5029664;28;20030;-71
2022/05/12 05:49:41;;;;;;;10.45;3.97;;;7.80;94.30;;;;;;5003380;28;20046;-71
2022/05/12 05:54:52;;;;;;;8.68;2.97;;;7.90;94.40;;;;;;5003092;28;20049;-72
2022/05/12 05:57:23;;;;;;;8.43;3.03;;;8.00;94.00;;;;;;4998425;28;20034;-71
2022/05/12 05:59:50;;;;;;;8.45;3.53;;;8.20;94.20;;;;;;5004718;28;20038;-71
2022/05/12 06:02:16;;;;;;;8.93;3.45;;;8.30;94.10;;;;;;5001123;28;20026;-71
2022/05/12 06:04:42;;;;;;;10.57;3.03;;;8.40;94.10;;;;;;5003655;28;20383;-72
2022/05/12 06:07:07;;;;;;;13.23;3.22;;;8.60;94.30;;;;;;5002124;28;20041;-72
2022/05/12 06:09:33;;;;;;;12.70;3.15;;;8.80;94.90;;;;;;5007462;28;20033;-73
2022/05/12 06:11:58;;;;;;;13.73;2.53;;;9.10;95.00;;;;;;5003989;28;20038;-73
2022/05/12 06:14:24;;;;;;;14.13;3.13;;;9.40;94.50;;;;;;5007217;28;20030;-72
2022/05/12 06:16:50;;;;;;;15.68;3.17;;;9.70;93.60;;;;;;5018976;28;20037;-72
2022/05/12 06:19:17;;;;;;;10.35;2.92;;;10.00;93.30;;;;;;5000279;28;20341;-72
2022/05/12 06:21:43;;;;;;;11.73;2.60;;;10.20;92.70;;;;;;5004408;28;20149;-72
2022/05/12 06:24:09;;;;;;;13.15;2.97;;;10.40;92.10;;;;;;5005720;28;20033;-73
2022/05/12 06:26:34;;;;;;;11.20;2.60;;;10.60;91.50;;;;;;5001920;28;20034;-73
2022/05/12 06:29:00;;;;;;;13.90;2.63;;;10.80;91.20;;;;;;4995063;28;20034;-71
2022/05/12 06:31:29;;;;;;;12.57;3.15;;;10.90;91.00;;;;;;5002579;28;20464;-72
2022/05/12 06:33:56;;;;;;;9.85;2.22;;;11.00;90.70;;;;;;5006424;28;20038;-72
2022/05/12 06:36:22;;;;;;;10.00;2.35;;;11.20;90.40;;;;;;5006709;28;20037;-73
2022/05/12 06:38:48;;;;;;;9.88;2.28;;;11.30;90.20;;;;;;5006788;28;20026;-73
2022/05/12 06:41:14;;;;;;;8.20;2.90;;;11.40;89.80;;;;;;5006270;28;20026;-72
2022/05/12 06:43:45;;;;;;;10.77;2.85;;;11.60;88.50;;;;;;5005067;28;20371;-71
2022/05/12 06:46:12;;;;;;;9.93;2.55;;;11.70;87.80;;;;;;5006457;28;20026;-73
2022/05/12 06:48:38;;;;;;;11.10;2.50;;;11.80;87.90;;;;;;5002597;28;20519;-72
2022/05/12 06:51:04;;;;;;;9.98;2.75;;;12.00;87.50;;;;;;5003244;28;20027;-73
2022/05/12 06:53:30;;;;;;;14.40;2.50;;;12.10;87.20;;;;;;5001885;28;20084;-72
2022/05/12 06:55:56;;;;;;;9.55;2.50;;;12.30;85.00;;;;;;5001742;28;20032;-73
2022/05/12 06:58:21;;;;;;;14.10;2.83;;;12.50;84.30;;;;;;5029156;28;20045;-74
2022/05/12 07:00:47;;;;;;;12.05;2.30;;;12.70;84.00;;;;;;5000675;28;20053;-72
2022/05/12 07:03:13;;;;;;;14.00;2.63;;;12.90;82.40;;;;;;4995669;28;20468;-73
2022/05/12 07:05:40;;;;;;;10.60;2.30;;;13.10;81.90;;;;;;4995693;28;20392;-76
2022/05/12 07:08:07;;;;;;;9.32;2.03;;;13.40;79.90;;;;;;5001309;28;20030;-73
2022/05/12 07:10:33;;;;;;;11.05;2.15;;;13.60;79.60;;;;;;5001034;28;20163;-74
2022/05/12 07:12:59;;;;;;;10.63;2.25;;;13.60;79.00;;;;;;5005563;28;20033;-70
2022/05/12 07:15:27;;;;;;;10.10;2.28;;;13.60;78.90;;;;;;5003531;28;20384;-71
2022/05/12 07:17:55;;;;;;;11.63;2.47;;;13.70;78.60;;;;;;5014179;28;20468;-71
2022/05/12 07:28:37;;;;;;;10.38;2.70;;;13.70;78.90;;;;;;4999943;28;20084;-70
2022/05/12 07:31:05;;;;;;;10.18;2.10;;;13.80;82.40;;;;;;5010392;28;20029;-72
2022/05/12 07:33:34;;;;;;;11.98;2.47;;;13.90;81.30;;;;;;5003347;28;20026;-70
2022/05/12 07:36:03;;;;;;;9.65;2.40;;;13.90;82.40;;;;;;5006283;28;20037;-72
2022/05/12 07:38:28;;;;;;;13.65;2.70;;;14.00;79.90;;;;;;5033491;28;20555;-70
2022/05/12 07:40:54;;;;;;;9.50;2.50;;;14.10;78.80;;;;;;5010101;28;20165;-71
2022/05/12 07:43:21;;;;;;;12.88;2.58;;;14.20;77.70;;;;;;5000298;28;20034;-70
2022/05/12 07:45:47;;;;;;;12.60;2.97;;;14.20;78.70;;;;;;5023592;28;20711;-70
2022/05/12 07:48:13;;;;;;;8.98;2.42;;;14.30;76.70;;;;;;5021763;28;20485;-72
2022/05/12 07:50:39;;;;;;;9.63;2.90;;;14.30;77.90;;;;;;5022345;28;20033;-72
2022/05/12 07:53:06;;;;;;;10.93;2.67;;;14.20;77.30;;;;;;4998080;28;20028;-73
2022/05/12 07:55:33;;;;;;;12.55;3.53;;;14.10;77.30;;;;;;5009190;28;20029;-73
2022/05/12 07:58:04;;;;;;;10.70;2.83;;;14.00;78.70;;;;;;5008483;28;20127;-73
2022/05/12 08:00:30;;;;;;;10.10;2.60;;;14.10;77.30;;;;;;5008781;28;20037;-72
2022/05/12 08:02:57;;;;;;;11.63;2.47;;;14.10;77.40;;;;;;5010100;28;20104;-73
2022/05/12 08:05:24;;;;;;;11.15;2.38;;;14.10;77.90;;;;;;5010528;28;20037;-73
2022/05/12 08:07:50;;;;;;;8.88;2.17;;;14.20;80.90;;;;;;5022497;28;20034;-70
2022/05/12 08:10:16;;;;;;;11.57;2.97;;;14.40;76.70;;;;;;5006231;28;20030;-72
2022/05/12 08:12:43;;;;;;;14.70;2.72;;;14.50;76.30;;;;;;5010266;28;20056;-71
2022/05/12 08:15:09;;;;;;;10.48;2.72;;;14.50;76.50;;;;;;5010094;28;20120;-73
2022/05/12 08:17:36;;;;;;;14.13;3.30;;;14.70;75.10;;;;;;5001068;28;20034;-70
2022/05/12 08:20:05;;;;;;;12.25;2.65;;;14.70;75.10;;;;;;5000304;28;20845;-71
2022/05/12 08:22:31;;;;;;;11.30;3.05;;;14.70;76.10;;;;;;4992529;28;20045;-70
2022/05/12 08:24:57;;;;;;;12.98;3.28;;;14.80;74.80;;;;;;5001936;28;20032;-70
2022/05/12 08:27:24;;;;;;;11.05;2.67;;;14.90;78.20;;;;;;5024346;28;20030;-70
2022/05/12 08:29:53;;;;;;;10.32;3.00;;;15.00;76.10;;;;;;5009286;28;20061;-72
2022/05/12 08:32:19;;;;;;;13.77;3.00;;;14.90;75.80;;;;;;5005345;28;20057;-70
2022/05/12 08:34:45;;;;;;;10.70;2.75;;;15.10;78.20;;;;;;4998974;28;20076;-71
2022/05/12 08:37:12;;;;;;;8.73;2.22;;;15.40;75.40;;;;;;5007504;28;20038;-71
2022/05/12 08:39:38;;;;;;;11.88;2.42;;;15.40;74.00;;;;;;5024888;28;20025;-71
2022/05/12 08:42:18;;;;;;;8.90;2.08;;;15.50;73.30;;;;;;5006601;28;20030;-71
2022/05/12 08:44:44;;;;;;;10.88;2.25;;;15.70;71.90;;;;;;5002570;28;20030;-71
2022/05/12 08:47:13;;;;;;;10.15;2.38;;;15.70;71.60;;;;;;5013052;28;20144;-71
2022/05/12 08:49:41;;;;;;;9.60;2.42;;;15.70;71.20;;;;;;5009570;28;20464;-70
2022/05/12 08:52:31;;;;;;;10.07;1.92;;;15.80;72.40;;;;;;5022486;28;20034;-71
2022/05/12 08:55:18;;;;;;;10.23;2.08;;;15.90;70.30;;;;;;5001502;28;20041;-74
2022/05/12 08:58:04;;;;;;;9.45;1.98;;;15.90;69.40;;;;;;5007447;28;20077;-72
2022/05/12 09:00:56;;;;;;;8.93;2.00;;;16.00;70.10;;;;;;4990594;28;20040;-69
2022/05/12 09:03:41;;;;;;;9.95;1.98;;;16.00;68.10;;;;;;5006839;28;20030;-70
2022/05/12 09:06:19;;;;;;;8.10;2.10;;;15.80;69.50;;;;;;4995463;28;20042;-71
2022/05/12 09:09:03;;;;;;;10.30;2.17;;;15.90;71.50;;;;;;5004961;28;20041;-78
2022/05/12 09:11:51;;;;;;;10.95;2.28;;;16.10;70.80;;;;;;5007998;28;20087;-72
2022/05/12 09:14:58;;;;;;;9.20;2.13;;;16.20;69.70;;;;;;5039761;28;20125;-71
2022/05/12 09:17:31;;;;;;;6.53;2.00;;;16.40;69.10;;;;;;4991002;28;20057;-72
2022/05/12 09:19:59;;;;;;;13.23;2.60;;;16.60;69.40;;;;;;5020120;28;20494;-72
2022/05/12 09:22:27;;;;;;;8.52;1.88;;;16.70;68.20;;;;;;5008470;28;20076;-72
2022/05/12 09:24:52;;;;;;;9.13;1.70;;;16.70;67.70;;;;;;5038904;28;20531;-76
2022/05/12 09:27:30;;;;;;;11.15;2.20;;;16.80;66.30;;;;;;5007002;28;20156;-71
2022/05/12 09:29:56;;;;;;;9.82;2.20;;;16.80;71.10;;;;;;5008590;28;20026;-73
2022/05/12 09:32:30;;;;;;;13.32;2.25;;;17.00;69.70;;;;;;5006784;28;20041;-71
2022/05/12 09:35:23;;;;;;;10.15;2.28;;;17.20;70.10;;;;;;5039842;28;20057;-74
2022/05/12 09:37:51;;;;;;;11.68;2.58;;;17.40;70.10;;;;;;5005132;28;20145;-73
2022/05/12 09:40:22;;;;;;;8.27;2.03;;;17.50;66.20;;;;;;5008620;28;20810;-71
2022/05/12 09:42:56;;;;;;;10.27;2.33;;;17.50;67.30;;;;;;5017850;28;20029;-71
2022/05/12 09:45:36;;;;;;;8.88;2.17;;;17.60;71.00;;;;;;5007227;28;20025;-70
2022/05/12 09:48:23;;;;;;;13.15;2.40;;;17.70;70.30;;;;;;5010442;28;20093;-70
2022/05/12 09:50:49;;;;;;;13.90;2.40;;;17.70;68.20;;;;;;5016376;28;20022;-74
2022/05/12 09:53:30;;;;;;;16.10;3.33;;;17.80;69.10;;;;;;5007822;28;20069;-73
2022/05/12 09:56:03;;;;;;;11.07;2.10;;;17.90;66.30;;;;;;5003550;28;20018;-75
2022/05/12 09:58:34;;;;;;;12.70;2.33;;;18.00;66.40;;;;;;5007851;28;20034;-72
2022/05/12 10:01:06;;;;;;;10.00;2.40;;;18.10;67.80;;;;;;5006506;28;20087;-71
2022/05/12 10:09:23;;;;;;;8.98;2.20;;;18.00;67.50;;;;;;5006912;28;20033;-73
2022/05/12 10:12:17;;;;;;;10.65;2.30;;;18.30;65.80;;;;;;5029687;28;20265;-74
2022/05/12 10:15:03;;;;;;;10.27;2.17;;;18.40;66.00;;;;;;5006082;28;20056;-73
2022/05/12 10:17:33;;;;;;;12.18;2.72;;;18.40;66.30;;;;;;5006334;28;20042;-72
2022/05/12 10:20:21;;;;;;;11.55;2.45;;;18.50;66.20;;;;;;4995882;28;20049;-72
2022/05/12 10:22:59;;;;;;;11.35;2.47;;;18.50;64.30;;;;;;5006224;28;20029;-70
2022/05/12 10:25:47;;;;;;;9.30;2.53;;;18.50;64.70;;;;;;5007704;28;20033;-70
2022/05/12 10:28:24;;;;;;;10.45;2.05;;;18.50;64.20;;;;;;5008167;28;20084;-71
2022/05/12 10:31:13;;;;;;;12.38;2.30;;;18.60;64.40;;;;;;5008036;28;20913;-69
2022/05/12 10:33:45;;;;;;;11.68;2.50;;;18.60;64.00;;;;;;5005819;28;20033;-71
2022/05/12 10:36:23;;;;;;;9.95;2.15;;;18.40;63.90;;;;;;5023147;28;20026;-71
2022/05/12 10:38:49;;;;;;;10.40;2.33;;;18.50;65.00;;;;;;5007992;28;20426;-71
2022/05/12 10:41:33;;;;;;;10.02;2.05;;;18.60;63.70;;;;;;5007816;28;20108;-74
2022/05/12 10:44:08;;;;;;;12.80;2.60;;;18.30;63.20;;;;;;5008393;28;20746;-70
2022/05/12 10:47:06;;;;;;;12.15;2.33;;;18.00;65.50;;;;;;5011828;28;20545;-76
2022/05/12 10:49:50;;;;;;;12.45;2.58;;;18.10;66.30;;;;;;5011639;28;20034;-72
2022/05/12 10:52:49;;;;;;;12.63;2.45;;;18.60;65.10;;;;;;5011683;28;20030;-70
2022/05/12 10:55:28;;;;;;;12.02;2.15;;;18.90;61.90;;;;;;5011018;28;20052;-75
2022/05/12 10:58:29;;;;;;;12.25;2.10;;;19.60;63.70;;;;;;5009004;28;20550;-72
2022/05/12 11:01:23;;;;;;;16.02;2.60;;;19.90;58.40;;;;;;5007231;28;20109;-71
2022/05/12 11:04:28;;;;;;;10.38;2.17;;;19.30;59.80;;;;;;5032937;28;20108;-71
2022/05/12 11:07:04;;;;;;;14.00;2.35;;;19.00;62.40;;;;;;5025714;28;20029;-73
2022/05/12 11:09:54;;;;;;;10.07;2.00;;;18.90;62.00;;;;;;5028033;28;20132;-76
2022/05/12 11:12:22;;;;;;;11.77;2.10;;;19.00;61.30;;;;;;5024108;28;20048;-69
2022/05/12 11:15:00;;;;;;;12.27;2.17;;;19.10;61.30;;;;;;5027674;28;20041;-73
2022/05/12 11:18:03;;;;;;;9.65;1.88;;;19.30;59.60;;;;;;5026962;28;20049;-76
2022/05/12 11:20:36;;;;;;;7.50;1.77;;;19.60;59.20;;;;;;5009791;28;20037;-74
2022/05/12 11:23:20;;;;;;;12.02;1.88;;;19.70;59.00;;;;;;5025768;28;20113;-73
2022/05/12 11:26:00;;;;;;;12.07;2.03;;;20.00;59.40;;;;;;5027998;28;20033;-71
2022/05/12 11:31:46;;;;;;;11.45;1.85;;;19.90;60.40;;;;;;5028190;28;20121;-71
2022/05/12 11:34:18;;;;;;;7.43;1.80;;;20.30;58.60;;;;;;5011277;28;20029;-71
2022/05/12 11:36:49;;;;;;;12.82;1.88;;;20.10;54.80;;;;;;5011543;28;20069;-73
2022/05/12 11:39:51;;;;;;;11.52;2.20;;;20.40;56.90;;;;;;5009839;28;20028;-70
2022/05/12 11:42:22;;;;;;;10.27;2.25;;;20.60;55.10;;;;;;5008481;28;20106;-74
2022/05/12 11:45:02;;;;;;;6.80;1.63;;;20.70;57.30;;;;;;5006334;28;20479;-75
2022/05/12 11:48:03;;;;;;;12.65;1.80;;;20.70;53.60;;;;;;5025643;28;20034;-71
2022/05/12 11:50:47;;;;;;;11.55;2.03;;;20.20;54.40;;;;;;5010209;28;20042;-69
2022/05/12 11:53:18;;;;;;;9.65;1.70;;;19.60;55.30;;;;;;4997063;28;20368;-73
2022/05/12 11:56:09;;;;;;;7.03;1.70;;;19.50;55.40;;;;;;5022515;28;20034;-71
2022/05/12 11:58:40;;;;;;;8.50;1.80;;;19.70;55.70;;;;;;5005980;28;20103;-74
2022/05/12 12:01:13;;;;;;;10.20;2.00;;;19.70;55.90;;;;;;5005148;28;20564;-73
2022/05/12 12:03:54;;;;;;;6.10;1.50;;;19.60;56.00;;;;;;5008407;28;20086;-71
2022/05/12 12:06:44;;;;;;;8.80;1.85;;;19.70;58.00;;;;;;4999326;28;20036;-73
2022/05/12 12:09:25;;;;;;;8.80;1.50;;;20.00;52.10;;;;;;4991579;28;20046;-73
2022/05/12 12:11:51;;;;;;;9.88;1.92;;;19.90;53.30;;;;;;4991680;28;20484;-75
2022/05/12 12:14:48;;;;;;;6.45;1.48;;;19.80;57.20;;;;;;4997051;28;20079;-72
2022/05/12 12:17:40;;;;;;;6.80;1.13;;;19.90;54.60;;;;;;4991892;28;20034;-72
2022/05/12 12:20:08;;;;;;;8.77;1.55;;;19.70;51.70;;;;;;5042822;28;20686;-70
2022/05/12 12:22:52;;;;;;;9.63;1.77;;;19.90;53.90;;;;;;5042590;28;20460;-71
2022/05/12 12:25:40;;;;;;;9.50;1.83;;;20.20;56.10;;;;;;5025777;28;20030;-69
2022/05/12 12:28:23;;;;;;;11.95;1.67;;;20.40;56.50;;;;;;5041907;28;20030;-71
2022/05/12 12:30:55;;;;;;;11.88;2.25;;;21.60;55.00;;;;;;5040506;28;20541;-71
2022/05/12 12:33:29;;;;;;;7.93;1.60;;;21.50;52.10;;;;;;5019528;28;20028;-72
2022/05/12 12:36:15;;;;;;;7.90;1.50;;;20.90;50.40;;;;;;5025695;28;20046;-77
2022/05/12 12:38:48;;;;;;;9.07;1.85;;;20.30;51.30;;;;;;4993467;28;20051;-74
2022/05/12 12:41:29;;;;;;;7.78;1.70;;;20.10;54.00;;;;;;4990812;28;20054;-71
2022/05/12 12:44:03;;;;;;;10.40;1.48;;;20.10;52.60;;;;;;5004852;28;20108;-79
2022/05/12 12:46:53;;;;;;;9.20;1.52;;;19.80;54.40;;;;;;5009631;28;20435;-73
2022/05/12 12:49:22;;;;;;;;;;;19.50;54.20;;;;;;5004645;28;20149;-73
2022/05/12 12:52:15;;;;;;;8.13;1.48;;;19.20;55.80;;;;;;5009127;28;19913;-72
2022/05/12 12:57:48;;;;;;;9.77;1.58;;;18.90;55.20;;;;;;5009157;28;20080;-71
2022/05/12 13:00:25;;;;;;;7.60;1.50;;;18.70;56.50;;;;;;5016634;28;20021;-72
2022/05/12 13:02:57;;;;;;;7.88;1.60;;;18.80;55.80;;;;;;5009261;28;20682;-72
2022/05/12 13:05:24;;;;;;;7.43;1.58;;;18.90;54.90;;;;;;5030203;28;20034;-73
2022/05/12 13:08:19;;;;;;;11.23;1.75;;;18.90;55.10;;;;;;5007629;28;20045;-71
2022/05/12 13:10:47;;;;;;;5.57;1.30;;;19.00;53.10;;;;;;5008789;28;20037;-73
2022/05/12 13:13:14;;;;;;;8.43;1.48;;;19.00;52.20;;;;;;5009121;28;20053;-72
2022/05/12 13:15:45;;;;;;;9.48;1.42;;;18.90;54.10;;;;;;5005275;28;20030;-75
2022/05/12 13:18:22;;;;;;;9.20;1.77;;;19.20;53.50;;;;;;5005292;28;20042;-71
2022/05/12 13:20:50;;;;;;;13.52;1.55;;;18.80;55.00;;;;;;5000609;28;20035;-70
2022/05/12 13:23:23;;;;;;;8.60;1.58;;;18.70;56.50;;;;;;4990463;28;20058;-70
2022/05/12 13:25:49;;;;;;;7.78;1.60;;;18.80;54.20;;;;;;5005529;28;20044;-71
2022/05/12 13:28:24;;;;;;;8.13;1.30;;;18.60;55.70;;;;;;5008167;28;20061;-71
2022/05/12 13:31:05;;;;;;;8.05;1.60;;;18.60;57.10;;;;;;5004307;28;20051;-72
2022/05/12 13:33:30;;;;;;;6.43;1.30;;;18.50;54.00;;;;;;5004133;28;20091;-71